Time;durP1;ratioP1;P1;durP2;ratioP2;P2;SDS_P1;SDS_P2;PMS_P1;PMS_P2;Temp;Humidity;BMP_temperature;BMP_pressure;BME280_temperature;BME280_humidity;BME280_pressure;Samples;Min_cycle;Max_cycle;Signal;HPM_P1;HPM_P2
2022/12/27 00:00:33;;;;;;;32.23;21.30;;;;;;;5.57;87.16;100361.72;5074549;28;20279;-57
2022/12/27 00:03:00;;;;;;;28.70;20.73;;;;;;;5.51;86.54;100363.06;5074489;28;20209;-58
2022/12/27 00:05:27;;;;;;;32.10;24.40;;;;;;;5.49;87.43;100359.59;5073581;28;20434;-58
2022/12/27 00:07:55;;;;;;;31.30;23.50;;;;;;;5.52;87.49;100359.72;5074129;28;20656;-58
2022/12/27 00:10:22;;;;;;;30.13;21.57;;;;;;;5.59;87.61;100357.56;5074648;28;20686;-57
2022/12/27 00:12:50;;;;;;;30.27;22.93;;;;;;;5.56;86.95;100348.88;5074469;28;20195;-57
2022/12/27 00:15:17;;;;;;;30.37;21.87;;;;;;;5.59;86.93;100355.00;5074244;28;20222;-58
2022/12/27 00:17:44;;;;;;;34.37;22.97;;;;;;;5.63;86.34;100345.84;5074194;28;20699;-57
2022/12/27 00:20:11;;;;;;;37.60;25.03;;;;;;;5.55;86.94;100347.16;5073982;28;20192;-57
2022/12/27 00:22:38;;;;;;;38.03;25.07;;;;;;;5.46;87.21;100347.56;5074288;28;20242;-58
2022/12/27 00:25:06;;;;;;;37.43;25.13;;;;;;;5.47;86.53;100348.41;5074051;28;20646;-58
2022/12/27 00:27:32;;;;;;;40.67;27.97;;;;;;;5.43;87.17;100349.06;5074005;28;20195;-57
2022/12/27 00:30:01;;;;;;;36.47;26.10;;;;;;;5.33;87.60;100342.63;5074041;28;20192;-57
2022/12/27 00:32:27;;;;;;;33.90;25.33;;;;;;;5.20;88.04;100346.25;5073920;28;20193;-57
2022/12/27 00:34:54;;;;;;;31.83;23.87;;;;;;;5.18;88.70;100336.78;5073995;28;20191;-57
2022/12/27 00:37:21;;;;;;;32.33;23.23;;;;;;;5.17;88.43;100338.44;5074228;28;20197;-57
2022/12/27 00:39:48;;;;;;;29.10;21.00;;;;;;;5.20;88.95;100337.72;5073749;28;20191;-57
2022/12/27 00:42:15;;;;;;;31.10;22.03;;;;;;;5.27;88.40;100329.59;5073204;28;20196;-57
2022/12/27 00:44:42;;;;;;;33.53;22.07;;;;;;;5.26;87.66;100325.28;5073729;28;20192;-58
2022/12/27 00:47:10;;;;;;;28.77;22.00;;;;;;;5.28;87.33;100322.03;5066782;28;20203;-58
2022/12/27 00:49:37;;;;;;;30.90;22.67;;;;;;;5.31;87.40;100316.19;5067148;28;20428;-58
2022/12/27 00:52:04;;;;;;;34.00;24.13;;;;;;;5.26;87.78;100315.09;5071330;28;20301;-58
2022/12/27 00:54:31;;;;;;;33.17;23.43;;;;;;;5.29;87.87;100313.59;5072071;28;20190;-58
2022/12/27 00:56:58;;;;;;;34.03;26.83;;;;;;;5.40;87.77;100305.59;5069060;28;20466;-58
2022/12/27 00:59:25;;;;;;;33.10;25.37;;;;;;;5.50;87.40;100316.31;5072322;28;20190;-58
2022/12/27 01:01:51;;;;;;;32.13;23.83;;;;;;;5.49;86.21;100304.38;5073888;28;20196;-58
2022/12/27 01:04:20;;;;;;;34.87;24.40;;;;;;;5.42;85.99;100304.88;5073085;28;20727;-58
2022/12/27 01:06:46;;;;;;;35.73;24.00;;;;;;;5.41;86.60;100305.69;5073337;28;20190;-57
2022/12/27 01:09:13;;;;;;;36.17;26.10;;;;;;;5.38;86.42;100311.47;5073262;28;20190;-57
2022/12/27 01:11:40;;;;;;;39.33;25.37;;;;;;;5.40;85.98;100310.69;5073082;28;20672;-58
2022/12/27 01:14:07;;;;;;;37.00;24.13;;;;;;;5.35;85.84;100323.22;5073084;28;20726;-57
2022/12/27 01:16:34;;;;;;;39.17;25.20;;;;;;;5.36;86.79;100333.47;5073156;28;20189;-57
2022/12/27 01:19:01;;;;;;;34.80;25.40;;;;;;;5.31;86.09;100326.41;5072892;28;20254;-58
2022/12/27 01:21:30;;;;;;;33.07;25.07;;;;;;;5.22;87.13;100320.81;5062482;28;20205;-58
2022/12/27 01:23:57;;;;;;;34.50;26.03;;;;;;;5.20;87.20;100315.66;5053370;28;20320;-58
2022/12/27 01:26:24;;;;;;;33.97;24.77;;;;;;;5.21;87.28;100303.81;5052827;28;20645;-58
2022/12/27 01:28:52;;;;;;;33.13;24.40;;;;;;;5.23;86.93;100298.00;5052914;28;20570;-58
2022/12/27 01:31:21;;;;;;;36.53;26.07;;;;;;;5.20;86.67;100307.16;5053414;28;20220;-57
2022/12/27 01:33:49;;;;;;;39.37;25.33;;;;;;;5.10;87.28;100295.63;5057322;28;20209;-58
2022/12/27 01:36:17;;;;;;;37.50;25.67;;;;;;;5.07;87.92;100292.94;5052811;28;20274;-57
2022/12/27 01:38:47;;;;;;;39.47;25.80;;;;;;;4.99;87.87;100289.13;5052832;28;20247;-57
2022/12/27 01:44:01;;;;;;;34.03;24.77;;;;;;;5.06;88.16;100285.19;5052696;28;20262;-57
2022/12/27 01:46:30;;;;;;;32.47;22.83;;;;;;;5.08;88.64;100292.13;5063845;28;20203;-58
2022/12/27 01:48:57;;;;;;;34.93;24.67;;;;;;;5.13;88.30;100284.72;5070953;28;20190;-58
2022/12/27 01:51:23;;;;;;;36.37;24.23;;;;;;;5.11;87.93;100281.25;5052323;28;20226;-58
2022/12/27 01:53:53;;;;;;;31.27;24.07;;;;;;;5.15;88.09;100283.13;5051551;28;20191;-58
2022/12/27 01:56:26;;;;;;;36.90;24.97;;;;;;;5.16;87.47;100282.34;5052430;28;20192;-59
2022/12/27 01:58:57;;;;;;;34.63;24.27;;;;;;;5.14;88.01;100289.88;5052964;28;20188;-58
2022/12/27 02:01:29;;;;;;;35.03;25.30;;;;;;;5.18;88.06;100280.72;5070388;28;20203;-58
2022/12/27 02:03:59;;;;;;;39.53;24.67;;;;;;;5.08;87.48;100266.66;5072539;28;20207;-58
2022/12/27 02:06:29;;;;;;;33.57;25.17;;;;;;;5.12;87.47;100271.13;5056092;28;20205;-57
2022/12/27 02:09:03;;;;;;;36.20;25.60;;;;;;;5.12;87.58;100275.31;5052050;28;20192;-58
2022/12/27 02:14:18;;;;;;;35.07;24.63;;;;;;;5.14;87.40;100283.91;5052623;28;20234;-58
2022/12/27 02:16:44;;;;;;;42.53;26.23;;;;;;;5.10;87.04;100272.72;5051886;28;20261;-58
2022/12/27 02:19:20;;;;;;;40.47;26.47;;;;;;;5.06;87.59;100272.47;5051909;28;20194;-57
2022/12/27 02:22:04;;;;;;;34.23;24.73;;;;;;;5.07;87.54;100272.56;5052500;28;20244;-58
2022/12/27 02:24:52;;;;;;;36.67;25.40;;;;;;;5.04;86.94;100277.50;5051972;28;20184;-58
2022/12/27 02:27:35;;;;;;;33.93;23.57;;;;;;;5.03;87.20;100277.41;5052018;28;20192;-58
2022/12/27 02:30:06;;;;;;;31.80;23.13;;;;;;;5.06;87.62;100272.47;5052545;28;20196;-57
2022/12/27 02:32:38;;;;;;;32.17;23.87;;;;;;;5.06;87.08;100270.81;5057905;28;20589;-58
2022/12/27 02:35:12;;;;;;;33.93;23.37;;;;;;;5.07;87.84;100270.00;5070215;28;20194;-58
2022/12/27 02:37:44;;;;;;;28.27;20.63;;;;;;;5.07;88.22;100264.03;5069180;28;20254;-58
2022/12/27 02:54:33;;;;;;;33.97;24.90;;;;;;;5.03;87.39;100263.00;5070388;28;20252;-57
2022/12/27 02:57:08;;;;;;;35.97;24.20;;;;;;;5.02;87.52;100260.41;5051514;28;20189;-57
2022/12/27 03:05:38;;;;;;;33.37;23.10;;;;;;;4.84;88.06;100272.19;5054554;28;20204;-57
2022/12/27 03:08:16;;;;;;;34.70;23.93;;;;;;;4.78;88.97;100269.34;5055929;28;20219;-58
2022/12/27 03:16:23;;;;;;;31.57;23.30;;;;;;;4.72;89.08;100259.72;5055328;28;20329;-57
2022/12/27 03:19:03;;;;;;;31.33;23.60;;;;;;;4.74;88.54;100253.03;5055358;28;20797;-58
2022/12/27 03:27:09;;;;;;;30.97;23.57;;;;;;;4.60;88.90;100249.78;5059075;28;20195;-58
2022/12/27 03:35:15;;;;;;;39.57;24.57;;;;;;;4.58;88.71;100240.31;5055388;28;20207;-57
2022/12/27 03:38:03;;;;;;;30.30;23.50;;;;;;;4.54;88.90;100241.81;5055223;28;20246;-58
2022/12/27 03:43:09;;;;;;;33.73;22.57;;;;;;;4.51;88.68;100244.19;5054840;28;20669;-58
2022/12/27 03:43:30;;;;;;;34.63;23.77;;;;;;;4.51;88.60;100244.19;5054796;28;20190;-57
2022/12/27 03:48:53;;;;;;;32.37;23.50;;;;;;;4.50;88.49;100231.41;5054952;28;20198;-57
2022/12/27 03:51:24;;;;;;;35.17;24.30;;;;;;;4.48;88.67;100230.44;5054770;28;20707;-57
2022/12/27 03:53:56;;;;;;;36.53;25.10;;;;;;;4.39;88.76;100222.34;5054961;28;20203;-57
2022/12/27 03:56:23;;;;;;;32.90;23.23;;;;;;;4.47;88.50;100236.34;5054615;28;20248;-57
2022/12/27 03:58:50;;;;;;;36.57;24.40;;;;;;;4.50;88.17;100239.94;5063276;28;20251;-58
2022/12/27 04:01:17;;;;;;;35.93;26.23;;;;;;;4.38;88.01;100251.13;5074640;28;20337;-58
2022/12/27 04:03:44;;;;;;;35.90;25.10;;;;;;;4.21;89.17;100254.44;5074352;28;20201;-57
2022/12/27 04:06:11;;;;;;;36.30;26.67;;;;;;;4.07;89.07;100259.66;5075015;28;20192;-58
2022/12/27 04:36:02;;;;;;;28.00;20.33;;;;;;;4.07;89.28;100259.66;5054437;28;20280;-58
2022/12/27 04:38:28;;;;;;;27.17;18.93;;;;;;;4.06;89.63;100255.38;5068087;28;20203;-57
2022/12/27 04:54:57;;;;;;;22.37;16.67;;;;;;;3.96;91.12;100267.50;5053954;28;20195;-57
2022/12/27 04:57:26;;;;;;;20.47;15.80;;;;;;;3.91;90.82;100262.16;5053653;28;20192;-57
2022/12/27 05:02:38;;;;;;;30.13;19.73;;;;;;;3.99;91.60;100283.78;5070046;28;20208;-58
2022/12/27 05:05:06;;;;;;;29.45;22.25;;;;;;;4.03;91.60;100269.59;5072561;28;20430;-58
2022/12/27 05:15:48;;;;;;;29.50;19.47;;;;;;;3.96;90.83;100277.66;5073384;28;20195;-57
2022/12/27 05:18:15;;;;;;;26.03;18.37;;;;;;;3.91;90.66;100267.25;5073282;28;20188;-57
2022/12/27 05:20:42;;;;;;;29.97;20.90;;;;;;;3.85;91.04;100273.66;5072952;28;20699;-57
2022/12/27 05:25:53;;;;;;;31.63;21.37;;;;;;;3.85;91.14;100277.06;5073302;28;20194;-58
2022/12/27 05:28:21;;;;;;;31.97;21.30;;;;;;;3.92;91.37;100258.84;5072826;28;20201;-57
2022/12/27 05:30:48;;;;;;;31.50;22.43;;;;;;;3.96;90.69;100257.31;5072953;28;20188;-57
2022/12/27 05:33:14;;;;;;;29.03;20.20;;;;;;;3.88;90.34;100248.41;5054799;28;20226;-57
2022/12/27 05:35:41;;;;;;;26.00;18.60;;;;;;;3.93;90.73;100260.56;5052975;28;20193;-57
2022/12/27 05:38:08;;;;;;;26.27;18.37;;;;;;;3.94;90.87;100275.06;5052891;28;20255;-57
2022/12/27 05:40:35;;;;;;;27.60;19.10;;;;;;;3.94;91.13;100264.00;5052877;28;20198;-57
2022/12/27 05:43:03;;;;;;;29.93;19.77;;;;;;;3.96;91.23;100275.13;5053037;28;20238;-57
2022/12/27 05:45:32;;;;;;;29.40;22.63;;;;;;;4.03;91.26;100275.56;5051770;28;20435;-57
2022/12/27 05:47:59;;;;;;;29.97;21.17;;;;;;;4.10;90.77;100277.63;5052639;28;20195;-57
2022/12/27 05:50:26;;;;;;;26.73;18.37;;;;;;;4.15;89.57;100278.75;5063958;28;20551;-57
2022/12/27 05:52:53;;;;;;;25.53;17.80;;;;;;;4.15;89.87;100273.66;5072533;28;20212;-57
2022/12/27 05:55:20;;;;;;;24.03;18.07;;;;;;;4.20;89.28;100273.94;5072975;28;20245;-58
2022/12/27 05:57:46;;;;;;;24.00;16.73;;;;;;;4.20;89.59;100275.59;5071921;28;20193;-58
2022/12/27 06:00:14;;;;;;;25.60;17.37;;;;;;;4.23;89.55;100280.84;5072470;28;20185;-58
2022/12/27 06:02:42;;;;;;;22.57;17.53;;;;;;;4.23;89.19;100280.84;5072337;28;20213;-57
2022/12/27 06:05:10;;;;;;;21.30;16.47;;;;;;;4.31;89.69;100284.66;5072089;28;20223;-57
2022/12/27 06:07:38;;;;;;;24.98;17.67;;;;;;;4.35;88.56;100282.34;5072407;28;20437;-57
2022/12/27 06:10:07;;;;;;;23.93;17.73;;;;;;;4.41;89.03;100279.25;5072450;28;20616;-57
2022/12/27 06:12:33;;;;;;;28.37;17.13;;;;;;;4.41;88.47;100281.81;5071187;28;20703;-57
2022/12/27 06:15:00;;;;;;;24.37;17.23;;;;;;;4.38;88.55;100277.44;5072666;28;20590;-56
2022/12/27 06:17:27;;;;;;;25.87;18.93;;;;;;;4.48;88.30;100281.31;5072156;28;20205;-57
2022/12/27 06:19:55;;;;;;;21.57;17.47;;;;;;;4.49;88.37;100283.97;5071964;28;20257;-58
2022/12/27 06:22:22;;;;;;;26.30;17.00;;;;;;;4.52;88.27;100280.72;5072389;28;20193;-57
2022/12/27 06:24:49;;;;;;;25.93;17.73;;;;;;;4.43;88.97;100280.22;5072174;28;20628;-57
2022/12/27 06:27:15;;;;;;;26.13;17.60;;;;;;;4.49;88.41;100275.44;5072138;28;20194;-57
2022/12/27 06:29:42;;;;;;;25.33;17.80;;;;;;;4.60;88.41;100294.69;5072141;28;20196;-57
2022/12/27 06:32:09;;;;;;;30.27;21.58;;;;;;;4.84;87.99;100298.50;5070765;28;20449;-57
2022/12/27 06:34:36;;;;;;;25.30;19.50;;;;;;;4.91;87.38;100299.72;5071622;28;20202;-58
2022/12/27 06:37:04;;;;;;;44.47;31.20;;;;;;;4.86;86.92;100294.41;5068816;28;20688;-57
2022/12/27 06:39:30;;;;;;;34.87;27.73;;;;;;;4.92;86.78;100289.59;5071000;28;20547;-58
2022/12/27 06:41:57;;;;;;;25.57;20.07;;;;;;;5.03;85.62;100280.81;5061996;28;20267;-58
2022/12/27 06:44:24;;;;;;;25.97;19.73;;;;;;;5.06;85.77;100278.44;5051737;28;20242;-58
2022/12/27 06:46:51;;;;;;;51.17;36.47;;;;;;;5.00;86.10;100275.56;5051562;28;20234;-57
2022/12/27 06:49:18;;;;;;;47.50;32.77;;;;;;;5.00;85.85;100267.94;5063844;28;20198;-57
2022/12/27 06:51:47;;;;;;;40.23;31.10;;;;;;;5.13;86.39;100270.31;5071663;28;20219;-57
2022/12/27 06:54:15;;;;;;;48.60;29.47;;;;;;;5.56;86.03;100264.75;5071716;28;20201;-58
2022/12/27 06:56:42;;;;;;;45.07;29.77;;;;;;;6.39;84.01;100274.72;5071350;28;20194;-57
2022/12/27 06:59:09;;;;;;;58.97;45.40;;;;;;;6.13;79.54;100279.41;5071417;28;20446;-58
2022/12/27 07:01:36;;;;;;;48.03;33.47;;;;;;;5.73;81.76;100284.31;5069609;28;20196;-58
2022/12/27 07:04:02;;;;;;;40.40;28.37;;;;;;;5.80;82.13;100283.78;5071535;28;20650;-58
2022/12/27 07:06:32;;;;;;;36.80;27.70;;;;;;;5.70;81.31;100268.84;5063418;28;20208;-58
2022/12/27 07:09:00;;;;;;;39.63;27.80;;;;;;;5.64;81.71;100274.53;5055853;28;20358;-59
2022/12/27 07:11:28;;;;;;;46.57;28.33;;;;;;;5.56;82.81;100275.84;5057482;28;20199;-58
2022/12/27 07:13:56;;;;;;;48.30;30.80;;;;;;;5.52;82.70;100265.44;5065747;28;20236;-58
2022/12/27 07:16:24;;;;;;;52.40;36.63;;;;;;;5.41;83.21;100261.50;5061392;28;20195;-57
2022/12/27 07:18:51;;;;;;;46.63;35.27;;;;;;;5.25;84.14;100258.19;5066460;28;20245;-58
2022/12/27 07:21:20;;;;;;;54.00;34.93;;;;;;;5.28;84.61;100254.91;5070924;28;20221;-58
2022/12/27 07:23:48;;;;;;;38.37;30.53;;;;;;;5.33;85.13;100243.25;5071223;28;20208;-58
2022/12/27 07:26:17;;;;;;;41.63;30.13;;;;;;;5.36;84.77;100254.47;5071237;28;20567;-57
2022/12/27 07:28:45;;;;;;;47.43;33.70;;;;;;;5.43;85.75;100255.66;5071520;28;20190;-58
2022/12/27 07:31:14;;;;;;;48.40;34.90;;;;;;;5.45;84.68;100248.09;5071188;28;20237;-58
2022/12/27 07:33:41;;;;;;;53.57;35.47;;;;;;;5.58;85.03;100258.06;5070902;28;20305;-57
2022/12/27 07:36:10;;;;;;;51.43;36.33;;;;;;;5.61;84.92;100269.28;5066242;28;20188;-57
2022/12/27 07:38:37;;;;;;;56.40;37.70;;;;;;;5.69;84.50;100270.53;5068293;28;20196;-58
2022/12/27 07:41:04;;;;;;;56.47;37.93;;;;;;;5.62;83.65;100263.41;5070451;28;20181;-58
2022/12/27 07:43:32;;;;;;;54.37;36.30;;;;;;;5.62;84.59;100262.50;5071013;28;20203;-58
2022/12/27 07:46:04;;;;;;;54.00;38.87;;;;;;;5.73;84.52;100263.91;5065823;28;20790;-58
2022/12/27 07:48:32;;;;;;;56.57;39.70;;;;;;;5.89;84.11;100256.19;5067551;28;20196;-58
2022/12/27 07:50:58;;;;;;;62.43;40.83;;;;;;;6.01;83.76;100255.91;5070371;28;20189;-58
2022/12/27 07:53:25;;;;;;;56.47;41.80;;;;;;;6.13;83.20;100254.78;5073920;28;20212;-58
2022/12/27 07:55:53;;;;;;;68.97;45.50;;;;;;;6.22;82.61;100254.31;5074553;28;20192;-58
2022/12/27 07:58:20;;;;;;;67.30;43.13;;;;;;;6.15;82.94;100225.13;5074369;28;20258;-58
2022/12/27 08:00:49;;;;;;;50.13;36.53;;;;;;;6.46;82.15;100250.31;5075095;28;20247;-57
2022/12/27 08:03:18;;;;;;;48.03;34.47;;;;;;;6.61;81.04;100257.78;5074762;28;20363;-57
2022/12/27 08:05:46;;;;;;;56.83;35.73;;;;;;;6.75;80.55;100270.38;5074590;28;20192;-57
2022/12/27 08:08:15;;;;;;;39.07;28.20;;;;;;;6.73;80.40;100250.69;5074384;28;20682;-58
2022/12/27 08:10:42;;;;;;;42.37;29.10;;;;;;;6.94;78.80;100261.81;5074826;28;20192;-58
2022/12/27 08:13:09;;;;;;;39.97;31.27;;;;;;;6.99;79.16;100267.97;5073999;28;20277;-58
2022/12/27 08:15:36;;;;;;;51.53;37.97;;;;;;;6.95;78.38;100255.91;5073849;28;20517;-58
2022/12/27 08:18:04;;;;;;;55.20;38.90;;;;;;;6.96;78.77;100265.28;5074095;28;20197;-57
2022/12/27 08:20:32;;;;;;;52.83;35.97;;;;;;;6.98;78.26;100251.78;5074015;28;20667;-57
2022/12/27 08:22:59;;;;;;;48.13;34.30;;;;;;;7.08;78.57;100259.03;5074020;28;20296;-58
2022/12/27 08:25:27;;;;;;;51.70;33.70;;;;;;;7.18;78.01;100247.50;5074727;28;20194;-57
2022/12/27 08:28:02;;;;;;;45.27;32.37;;;;;;;7.17;77.47;100239.78;5073996;28;20266;-58
2022/12/27 08:30:28;;;;;;;45.03;32.33;;;;;;;7.32;77.22;100255.75;5074273;28;20275;-58
2022/12/27 08:32:55;;;;;;;44.67;32.47;;;;;;;7.27;77.08;100242.78;5073646;28;20223;-58
2022/12/27 08:35:22;;;;;;;44.93;31.83;;;;;;;7.38;77.09;100240.66;5073875;28;20193;-56
2022/12/27 08:37:50;;;;;;;46.37;36.80;;;;;;;7.52;77.41;100242.09;5072403;28;20464;-56
2022/12/27 08:40:17;;;;;;;44.93;34.27;;;;;;;7.68;76.55;100229.97;5073550;28;20485;-55
2022/12/27 08:42:44;;;;;;;44.07;33.47;;;;;;;7.83;76.27;100228.84;5073922;28;20199;-56
2022/12/27 08:45:11;;;;;;;43.73;33.10;;;;;;;7.96;75.71;100220.81;5073181;28;20195;-55
2022/12/27 08:47:38;;;;;;;38.43;31.40;;;;;;;8.04;74.69;100212.59;5068611;28;20189;-56
2022/12/27 08:50:06;;;;;;;43.37;33.43;;;;;;;8.14;74.52;100218.94;5072114;28;20194;-56
2022/12/27 08:52:34;;;;;;;45.97;33.77;;;;;;;8.24;73.66;100219.31;5072176;28;20211;-56
2022/12/27 08:55:02;;;;;;;46.60;32.40;;;;;;;8.38;73.75;100219.00;5069916;28;20207;-56
2022/12/27 08:57:29;;;;;;;48.77;33.10;;;;;;;8.50;73.08;100220.31;5071722;28;20445;-57
2022/12/27 08:59:56;;;;;;;46.43;33.47;;;;;;;8.67;72.21;100206.41;5072623;28;20179;-57
2022/12/27 09:02:22;;;;;;;47.40;33.53;;;;;;;8.70;71.28;100209.09;5071988;28;20618;-56
2022/12/27 09:04:49;;;;;;;45.70;33.70;;;;;;;8.77;70.72;100194.78;5072742;28;20217;-56
2022/12/27 09:07:16;;;;;;;42.73;32.27;;;;;;;8.82;70.50;100198.38;5072858;28;20202;-56
2022/12/27 09:09:43;;;;;;;43.27;32.53;;;;;;;8.86;70.03;100196.00;5073057;28;20233;-55
2022/12/27 09:12:11;;;;;;;37.60;30.67;;;;;;;8.96;69.76;100196.28;5073002;28;20594;-56
2022/12/27 09:14:38;;;;;;;54.03;35.50;;;;;;;8.98;69.53;100194.66;5072471;28;20239;-56
2022/12/27 09:17:06;;;;;;;47.90;34.03;;;;;;;9.04;69.18;100200.00;5072900;28;20198;-56
2022/12/27 09:19:32;;;;;;;34.03;25.07;;;;;;;8.90;69.01;100186.69;5072693;28;20191;-56
2022/12/27 09:21:59;;;;;;;31.37;21.53;;;;;;;8.98;68.72;100179.28;5072995;28;20183;-56
2022/12/27 09:24:26;;;;;;;25.70;18.13;;;;;;;9.10;68.21;100195.03;5072503;28;20196;-56
2022/12/27 09:26:53;;;;;;;23.97;16.97;;;;;;;9.31;67.65;100185.50;5072513;28;20197;-55
2022/12/27 09:29:21;;;;;;;21.37;17.77;;;;;;;8.93;67.31;100093.69;5072269;28;20199;-56
2022/12/27 09:31:48;;;;;;;27.60;17.43;;;;;;;9.52;67.24;100170.78;5072300;28;20197;-57
2022/12/27 09:34:14;;;;;;;25.07;16.33;;;;;;;9.66;66.93;100148.13;5072486;28;20243;-56
2022/12/27 09:36:41;;;;;;;24.43;16.50;;;;;;;9.79;65.47;100153.66;5072720;28;20206;-57
2022/12/27 09:39:10;;;;;;;26.27;18.52;;;;;;;9.93;65.52;100161.78;5070813;28;20430;-58
2022/12/27 09:41:54;;;;;;;22.87;16.23;;;;;;;10.11;64.67;100146.03;5063812;28;20200;-57
2022/12/27 09:44:30;;;;;;;21.63;16.60;;;;;;;10.20;64.55;100154.03;5052080;28;20188;-56
2022/12/27 09:47:01;;;;;;;23.30;17.13;;;;;;;10.30;64.38;100138.06;5052948;28;20194;-56
2022/12/27 09:49:33;;;;;;;24.10;17.50;;;;;;;10.38;64.08;100134.84;5052124;28;20195;-56
2022/12/27 09:52:05;;;;;;;24.80;17.73;;;;;;;10.44;63.63;100134.13;5052249;28;20617;-56
2022/12/27 09:54:39;;;;;;;27.93;20.37;;;;;;;10.55;63.39;100132.72;5068137;28;20672;-56
2022/12/27 09:57:16;;;;;;;29.67;21.03;;;;;;;10.61;63.49;100126.06;5062027;28;20198;-56
2022/12/27 09:59:48;;;;;;;32.38;22.63;;;;;;;10.76;62.77;100120.44;5071831;28;20936;-56
2022/12/27 10:02:21;;;;;;;34.53;24.47;;;;;;;10.80;62.77;100129.97;5071910;28;20199;-56
2022/12/27 10:04:48;;;;;;;30.47;22.73;;;;;;;10.85;61.98;100122.38;5071986;28;20261;-57
2022/12/27 10:07:23;;;;;;;30.13;21.60;;;;;;;10.85;62.58;100123.22;5072139;28;20187;-57
2022/12/27 10:09:58;;;;;;;27.60;20.77;;;;;;;10.95;62.41;100114.06;5072411;28;20187;-57
2022/12/27 10:12:52;;;;;;;29.53;22.23;;;;;;;11.07;62.51;100117.78;5071755;28;20191;-57
2022/12/27 10:15:28;;;;;;;29.70;21.27;;;;;;;11.20;61.80;100103.53;5071108;28;20227;-56
2022/12/27 10:18:07;;;;;;;30.70;21.93;;;;;;;11.29;61.51;100100.31;5072398;28;20191;-57
2022/12/27 10:20:56;;;;;;;32.10;25.10;;;;;;;11.45;61.28;100102.38;5071999;28;20842;-56
2022/12/27 10:23:28;;;;;;;31.40;22.87;;;;;;;11.61;59.84;100112.19;5072318;28;20192;-56
2022/12/27 10:25:59;;;;;;;28.87;21.70;;;;;;;10.86;59.81;99967.31;5071221;28;20192;-57
2022/12/27 10:28:33;;;;;;;34.13;23.50;;;;;;;11.66;60.54;100088.28;5066014;28;20291;-55
2022/12/27 10:31:03;;;;;;;29.70;24.47;;;;;;;11.72;60.30;100090.16;5066009;28;20184;-58
2022/12/27 10:33:32;;;;;;;38.97;23.93;;;;;;;11.78;59.97;100085.13;5070675;28;20211;-58
2022/12/27 10:36:02;;;;;;;34.03;23.80;;;;;;;11.88;60.09;100087.06;5067880;28;20218;-60
2022/12/27 10:38:32;;;;;;;33.77;24.57;;;;;;;12.00;59.71;100084.72;5070717;28;20191;-57
2022/12/27 10:41:10;;;;;;;32.93;24.07;;;;;;;12.11;59.58;100082.38;5076750;28;20184;-57
2022/12/27 10:43:41;;;;;;;33.83;25.60;;;;;;;11.85;59.53;100020.03;5069069;28;20195;-57
2022/12/27 10:46:15;;;;;;;33.13;25.50;;;;;;;12.29;58.41;100068.13;5071065;28;20207;-57
2022/12/27 10:48:56;;;;;;;35.80;26.23;;;;;;;12.41;58.33;100075.22;5070840;28;20430;-58
2022/12/27 10:51:25;;;;;;;35.57;26.87;;;;;;;12.53;57.92;100056.50;5069995;28;20195;-58
2022/12/27 10:53:59;;;;;;;33.90;24.13;;;;;;;12.58;57.84;100057.47;5068593;28;20220;-58
2022/12/27 10:56:28;;;;;;;35.23;24.00;;;;;;;12.73;57.34;100042.22;5071010;28;20194;-57
2022/12/27 10:59:05;;;;;;;31.50;23.37;;;;;;;12.76;57.41;100043.16;5068519;28;20199;-58
2022/12/27 11:01:33;;;;;;;33.20;23.90;;;;;;;12.84;56.87;100044.16;5070790;28;20272;-58
2022/12/27 11:04:12;;;;;;;35.50;25.37;;;;;;;12.92;57.08;100034.81;5070162;28;20192;-58
2022/12/27 11:06:39;;;;;;;33.97;23.50;;;;;;;13.07;56.70;100030.75;5069028;28;20291;-58
2022/12/27 11:09:27;;;;;;;35.55;24.65;;;;;;;13.28;56.46;100024.19;5068605;28;20468;-58
2022/12/27 11:12:11;;;;;;;36.67;24.80;;;;;;;13.39;56.42;100019.19;5071105;28;20196;-58
2022/12/27 11:14:38;;;;;;;38.57;24.90;;;;;;;13.41;56.00;100018.34;5051382;28;20232;-58
2022/12/27 11:17:09;;;;;;;32.33;25.17;;;;;;;13.47;56.14;100012.41;5051397;28;20263;-58
2022/12/27 11:19:40;;;;;;;36.37;26.20;;;;;;;13.56;55.31;100018.56;5059712;28;20245;-59
2022/12/27 11:22:08;;;;;;;35.73;26.47;;;;;;;13.66;54.11;100023.81;5055041;28;20641;-58
2022/12/27 11:24:36;;;;;;;44.77;25.87;;;;;;;13.69;53.77;100016.13;5067514;28;20192;-58
2022/12/27 11:27:04;;;;;;;34.57;26.47;;;;;;;13.60;54.58;100015.16;5072089;28;20195;-59
2022/12/27 11:29:33;;;;;;;40.20;28.23;;;;;;;13.71;53.97;100011.81;5073919;28;21006;-59
2022/12/27 11:32:07;;;;;;;33.37;25.20;;;;;;;13.76;54.54;100010.19;5071367;28;20193;-58
2022/12/27 11:34:37;;;;;;;31.43;24.37;;;;;;;13.85;53.86;99997.34;5074059;28;20700;-58
2022/12/27 11:37:09;;;;;;;34.20;26.37;;;;;;;13.86;54.59;99999.97;5074128;28;20600;-58
2022/12/27 11:39:42;;;;;;;37.53;25.17;;;;;;;13.33;54.31;99901.25;5074151;28;20185;-57
2022/12/27 11:42:18;;;;;;;31.87;24.53;;;;;;;13.98;54.38;99992.34;5074264;28;20183;-56
2022/12/27 11:44:59;;;;;;;32.37;23.70;;;;;;;14.09;54.06;99990.72;5073981;28;20199;-57
2022/12/27 11:47:32;;;;;;;31.93;24.70;;;;;;;14.17;53.82;99993.41;5074794;28;20191;-58
2022/12/27 11:50:15;;;;;;;35.97;23.83;;;;;;;14.35;53.07;99983.25;5074700;28;20191;-58
2022/12/27 11:53:07;;;;;;;27.93;21.17;;;;;;;14.61;52.21;99980.91;5074967;28;20192;-58
2022/12/27 11:55:52;;;;;;;31.67;20.90;;;;;;;14.81;52.42;99986.19;5063220;28;20216;-58
2022/12/27 11:59:01;;;;;;;27.47;19.17;;;;;;;14.95;52.42;99988.03;5064429;28;20226;-58
2022/12/27 12:01:53;;;;;;;31.63;19.03;;;;;;;15.15;52.30;99985.56;5061788;28;20198;-58
2022/12/27 12:04:49;;;;;;;26.83;18.47;;;;;;;15.15;52.23;99991.63;5032129;28;20188;-58
2022/12/27 12:07:31;;;;;;;23.25;17.98;;;;;;;15.19;52.74;99987.34;5067890;28;20441;-58
2022/12/27 12:10:11;;;;;;;30.77;19.60;;;;;;;15.43;51.68;99973.63;5073585;28;20183;-58
2022/12/27 12:13:22;;;;;;;31.92;23.17;;;;;;;15.42;52.01;99974.47;5072704;28;20441;-58
2022/12/27 12:16:14;;;;;;;26.43;18.97;;;;;;;15.45;52.04;99975.38;5072564;28;20562;-58
2022/12/27 12:18:59;;;;;;;25.03;16.37;;;;;;;15.70;51.00;99968.59;5057089;28;20191;-58
2022/12/27 12:21:30;;;;;;;18.70;14.77;;;;;;;15.68;51.44;99973.78;5074484;28;20194;-58
2022/12/27 12:24:22;;;;;;;19.90;14.57;;;;;;;15.73;51.10;99968.59;5074390;28;20191;-58
2022/12/27 12:27:02;;;;;;;22.40;16.17;;;;;;;15.66;51.31;99972.00;5052528;28;20733;-58
2022/12/27 12:29:39;;;;;;;21.27;15.63;;;;;;;15.72;50.90;99967.72;5070675;28;20184;-57
2022/12/27 12:32:32;;;;;;;21.33;15.63;;;;;;;15.82;50.65;99979.84;5072973;28;20657;-57
2022/12/27 12:35:14;;;;;;;21.03;15.63;;;;;;;16.02;50.41;99989.38;5068183;28;20445;-58
2022/12/27 12:38:05;;;;;;;21.30;12.87;;;;;;;16.17;49.82;99984.25;5071650;28;20192;-58
2022/12/27 12:40:50;;;;;;;17.70;12.17;;;;;;;16.25;49.36;99987.72;5074127;28;20191;-58
2022/12/27 12:43:33;;;;;;;26.93;15.40;;;;;;;16.16;50.00;99992.88;5073604;28;20188;-58
2022/12/27 12:46:16;;;;;;;19.53;16.67;;;;;;;16.18;50.46;99993.78;5073835;28;20191;-59
2022/12/27 12:49:02;;;;;;;20.33;15.30;;;;;;;16.03;49.60;99960.91;5071115;28;20199;-58
2022/12/27 12:51:43;;;;;;;24.43;12.60;;;;;;;16.30;48.66;99978.22;5073369;28;20191;-58
2022/12/27 12:54:26;;;;;;;18.17;13.87;;;;;;;16.47;48.62;99992.06;5072905;28;20222;-59
2022/12/27 12:57:11;;;;;;;23.33;15.80;;;;;;;16.43;49.16;99998.97;5072090;28;20196;-58
2022/12/27 13:00:11;;;;;;;23.07;17.13;;;;;;;16.30;49.17;99971.31;5072214;28;20193;-58
2022/12/27 13:03:04;;;;;;;24.70;17.07;;;;;;;16.67;48.72;99998.16;5071681;28;20270;-59
2022/12/27 13:05:41;;;;;;;31.60;17.33;;;;;;;16.69;48.72;99999.03;5072205;28;20744;-58
2022/12/27 13:08:15;;;;;;;18.67;13.20;;;;;;;16.35;48.21;99938.44;5073172;28;20198;-58
2022/12/27 13:10:57;;;;;;;21.43;13.37;;;;;;;16.82;48.11;100000.72;5072606;28;20646;-58
2022/12/27 13:13:36;;;;;;;15.53;11.20;;;;;;;16.93;47.83;100000.72;5069703;28;20187;-58
2022/12/27 13:16:17;;;;;;;14.03;10.67;;;;;;;16.99;47.50;99993.78;5072773;28;20191;-60